Time;durP1;ratioP1;P1;durP2;ratioP2;P2;SDS_P1;SDS_P2;PMS_P1;PMS_P2;Temp;Humidity;BMP_temperature;BMP_pressure;BME280_temperature;BME280_humidity;BME280_pressure;Samples;Min_cycle;Max_cycle;Signal;HPM_P1;HPM_P2
2022/10/23 00:01:29;;;;;;;9.57;3.25;;;12.30;99.90;;;;;;4792985;29;20187;-88
2022/10/23 00:03:58;;;;;;;7.28;3.53;;;12.30;99.90;;;;;;4792591;29;20251;-88
2022/10/23 00:06:25;;;;;;;5.57;3.80;;;12.20;99.90;;;;;;4793211;29;20230;-88
2022/10/23 00:08:51;;;;;;;8.75;3.90;;;12.20;99.90;;;;;;4793081;29;20186;-87
2022/10/23 00:11:20;;;;;;;8.00;3.58;;;12.10;99.90;;;;;;4809023;29;20232;-87
2022/10/23 00:13:47;;;;;;;8.35;3.50;;;12.10;99.90;;;;;;4792586;29;20200;-87
2022/10/23 00:16:13;;;;;;;11.10;4.07;;;12.10;99.90;;;;;;4808717;29;20614;-87
2022/10/23 00:18:39;;;;;;;5.05;3.58;;;12.00;99.90;;;;;;4808441;29;20247;-88
2022/10/23 00:21:07;;;;;;;9.02;3.72;;;12.10;99.90;;;;;;4808809;29;20609;-89
2022/10/23 00:23:33;;;;;;;10.35;3.42;;;12.10;99.90;;;;;;4808552;29;20243;-88
2022/10/23 00:25:59;;;;;;;11.38;3.55;;;12.10;99.90;;;;;;4792490;29;20265;-87
2022/10/23 00:28:25;;;;;;;5.03;3.28;;;12.10;99.90;;;;;;4808722;29;20318;-87
2022/10/23 00:30:51;;;;;;;10.30;3.88;;;12.00;99.90;;;;;;4792442;29;20222;-88
2022/10/23 00:33:17;;;;;;;6.05;3.95;;;12.00;99.90;;;;;;4791908;29;20347;-88
2022/10/23 00:35:43;;;;;;;6.40;3.75;;;12.00;99.90;;;;;;4808541;29;20260;-87
2022/10/23 00:38:10;;;;;;;8.32;3.53;;;12.00;99.90;;;;;;4792127;29;20584;-87
2022/10/23 00:40:37;;;;;;;5.18;3.50;;;12.00;99.90;;;;;;4807706;29;20183;-86
2022/10/23 00:43:04;;;;;;;6.85;3.20;;;11.90;99.90;;;;;;4808354;29;20185;-87
2022/10/23 00:45:32;;;;;;;5.78;3.05;;;11.90;99.90;;;;;;4792077;29;20273;-88
2022/10/23 00:48:02;;;;;;;6.80;3.38;;;12.00;99.90;;;;;;4792139;29;20222;-87
2022/10/23 00:50:31;;;;;;;4.38;2.83;;;12.00;99.90;;;;;;4792065;29;20178;-87
2022/10/23 00:53:00;;;;;;;6.28;3.45;;;12.00;99.90;;;;;;4808349;29;20186;-88
2022/10/23 00:55:29;;;;;;;8.70;3.67;;;12.00;99.90;;;;;;4808219;29;20183;-87
2022/10/23 00:57:55;;;;;;;5.78;3.60;;;12.00;99.90;;;;;;4808120;29;20230;-88
2022/10/23 01:00:30;;;;;;;11.23;4.45;;;12.00;99.90;;;;;;4792035;29;20194;-87
2022/10/23 01:02:57;;;;;;;6.32;3.50;;;12.00;99.90;;;;;;4791576;29;20187;-87
2022/10/23 01:05:30;;;;;;;8.55;3.60;;;12.00;99.90;;;;;;4791605;29;20191;-87
2022/10/23 01:08:03;;;;;;;7.03;3.20;;;12.00;99.90;;;;;;4791436;29;20643;-87
2022/10/23 01:10:43;;;;;;;7.57;3.20;;;12.00;99.90;;;;;;4791810;29;20198;-88
2022/10/23 01:13:22;;;;;;;5.07;3.15;;;12.00;99.90;;;;;;4808013;29;20520;-88
2022/10/23 01:16:19;;;;;;;8.20;2.97;;;12.10;99.90;;;;;;4791745;29;20186;-86
2022/10/23 01:19:00;;;;;;;4.82;2.97;;;12.00;99.90;;;;;;4784134;29;20654;-87
2022/10/23 01:21:50;;;;;;;9.55;2.90;;;11.90;99.90;;;;;;4807862;29;20182;-88
2022/10/23 01:24:37;;;;;;;6.82;3.83;;;11.80;99.90;;;;;;4791451;29;20520;-87
2022/10/23 01:27:25;;;;;;;5.88;3.20;;;11.70;99.90;;;;;;4791723;29;20189;-87
2022/10/23 01:30:06;;;;;;;7.13;3.15;;;11.60;99.90;;;;;;4791443;29;20187;-87
2022/10/23 01:32:49;;;;;;;3.83;2.85;;;11.70;99.90;;;;;;4807208;29;20212;-87
2022/10/23 01:35:23;;;;;;;7.38;2.85;;;11.70;99.90;;;;;;4807561;29;20614;-87
2022/10/23 01:38:04;;;;;;;10.00;3.40;;;11.70;99.90;;;;;;4807612;29;20179;-88
2022/10/23 01:40:43;;;;;;;8.80;3.03;;;11.60;99.90;;;;;;4791523;29;20178;-87
2022/10/23 01:43:15;;;;;;;8.63;2.97;;;11.60;99.90;;;;;;4791310;29;20505;-87
2022/10/23 01:45:52;;;;;;;7.60;2.53;;;11.60;99.90;;;;;;4807646;29;20241;-87
2022/10/23 01:48:23;;;;;;;7.70;3.25;;;11.50;99.90;;;;;;4791172;29;20630;-87
2022/10/23 01:50:52;;;;;;;7.00;3.28;;;11.60;99.90;;;;;;4791146;29;20177;-87
2022/10/23 01:53:19;;;;;;;7.75;3.53;;;11.60;99.90;;;;;;4790814;29;20698;-87
2022/10/23 01:55:48;;;;;;;5.20;2.92;;;11.60;99.90;;;;;;4791174;29;20183;-87
2022/10/23 01:58:15;;;;;;;8.27;3.20;;;11.60;99.90;;;;;;4807175;29;20178;-87
2022/10/23 02:00:43;;;;;;;7.05;2.85;;;11.60;99.90;;;;;;4791272;29;20186;-86
2022/10/23 02:03:12;;;;;;;6.97;3.45;;;11.60;99.90;;;;;;4792084;29;20266;-87
2022/10/23 02:05:40;;;;;;;8.70;3.17;;;11.60;99.90;;;;;;4806333;29;20247;-87
2022/10/23 02:08:06;;;;;;;4.20;2.67;;;11.60;99.90;;;;;;4806030;29;20186;-86
2022/10/23 02:10:44;;;;;;;7.05;3.03;;;11.60;99.90;;;;;;4806035;29;20679;-86
2022/10/23 02:13:36;;;;;;;8.73;3.03;;;11.60;99.90;;;;;;4806001;29;20666;-87
2022/10/23 02:16:44;;;;;;;8.50;3.20;;;11.60;99.90;;;;;;4764344;29;20195;-87
2022/10/23 02:19:18;;;;;;;7.68;3.33;;;11.50;99.90;;;;;;4786550;29;20253;-87
2022/10/23 02:21:52;;;;;;;5.68;2.80;;;11.50;99.90;;;;;;4806191;29;20182;-87
2022/10/23 02:24:33;;;;;;;5.40;3.15;;;11.60;99.90;;;;;;4805976;29;20235;-86
2022/10/23 02:27:04;;;;;;;6.10;3.30;;;11.60;99.90;;;;;;4805761;29;20680;-87
2022/10/23 02:29:38;;;;;;;8.20;3.00;;;11.60;99.90;;;;;;4805785;29;20627;-87
2022/10/23 02:32:06;;;;;;;6.90;2.80;;;11.70;99.90;;;;;;4805780;29;20662;-87
2022/10/23 02:34:32;;;;;;;7.75;3.20;;;11.60;99.90;;;;;;4806290;29;20230;-87
2022/10/23 02:36:59;;;;;;;4.32;3.28;;;11.60;99.90;;;;;;4806774;29;20197;-87
2022/10/23 02:39:27;;;;;;;5.72;2.65;;;11.60;99.90;;;;;;4790727;29;20233;-86
2022/10/23 02:41:56;;;;;;;8.75;3.15;;;11.50;99.90;;;;;;4790638;29;20516;-87
2022/10/23 02:44:36;;;;;;;9.73;3.50;;;11.50;99.90;;;;;;4807026;29;20186;-88
2022/10/23 02:47:28;;;;;;;17.10;2.55;;;11.30;99.90;;;;;;4806934;29;20174;-86
2022/10/23 02:50:21;;;;;;;9.00;2.95;;;11.30;99.90;;;;;;4806905;29;20175;-87
2022/10/23 02:53:06;;;;;;;5.00;2.63;;;11.30;99.90;;;;;;4806926;29;20556;-87
2022/10/23 02:55:49;;;;;;;12.40;3.03;;;11.30;99.90;;;;;;4790811;29;20690;-87
2022/10/23 02:58:23;;;;;;;10.00;3.63;;;11.30;99.90;;;;;;4790891;29;20195;-87
2022/10/23 03:00:53;;;;;;;4.40;2.63;;;11.40;99.90;;;;;;4806925;29;20182;-87
2022/10/23 03:03:24;;;;;;;9.07;2.92;;;11.30;99.90;;;;;;4785987;29;20508;-87
2022/10/23 03:05:51;;;;;;;3.28;2.50;;;11.30;99.90;;;;;;4775986;30;20175;-87
2022/10/23 03:08:17;;;;;;;5.68;2.92;;;11.30;99.90;;;;;;4776104;30;20179;-87
2022/10/23 03:10:43;;;;;;;8.20;2.80;;;11.30;99.90;;;;;;4775619;30;20624;-87
2022/10/23 03:13:09;;;;;;;4.40;2.50;;;11.30;99.90;;;;;;4775982;30;20183;-87
2022/10/23 03:15:37;;;;;;;4.28;2.65;;;11.40;99.90;;;;;;4775523;30;20187;-87
2022/10/23 03:18:03;;;;;;;11.35;2.60;;;11.40;99.90;;;;;;4775708;30;20222;-87
2022/10/23 03:20:29;;;;;;;9.85;2.90;;;11.40;99.90;;;;;;4791630;30;20577;-87
2022/10/23 03:22:55;;;;;;;8.25;2.50;;;11.40;99.90;;;;;;4775556;30;20226;-87
2022/10/23 03:25:20;;;;;;;9.23;3.00;;;11.30;99.90;;;;;;4775659;30;20647;-87
2022/10/23 03:27:53;;;;;;;6.95;2.85;;;11.20;99.90;;;;;;4791679;30;20267;-87
2022/10/23 03:30:19;;;;;;;5.78;3.30;;;11.20;99.90;;;;;;4775657;30;20190;-87
2022/10/23 03:32:45;;;;;;;5.35;2.60;;;11.20;99.90;;;;;;4775578;29;20529;-87
2022/10/23 03:35:11;;;;;;;5.22;2.25;;;11.10;99.90;;;;;;4793087;29;20256;-87
2022/10/23 03:37:38;;;;;;;10.10;3.33;;;11.10;99.90;;;;;;4809485;29;20187;-87
2022/10/23 03:40:05;;;;;;;4.13;2.90;;;11.20;99.90;;;;;;4793529;29;20171;-87
2022/10/23 03:42:30;;;;;;;3.50;2.58;;;11.20;99.90;;;;;;4793297;29;20194;-87
2022/10/23 03:44:56;;;;;;;4.30;2.42;;;11.20;99.90;;;;;;4793206;29;20178;-86
2022/10/23 03:47:22;;;;;;;5.20;2.80;;;11.20;99.90;;;;;;4792918;29;20238;-87
2022/10/23 03:49:48;;;;;;;10.52;2.70;;;11.20;99.90;;;;;;4792914;29;20199;-87
2022/10/23 03:52:13;;;;;;;6.45;2.58;;;11.20;99.90;;;;;;4793025;29;20231;-87
2022/10/23 03:54:39;;;;;;;6.28;2.30;;;11.10;99.90;;;;;;4793169;29;20524;-87
2022/10/23 03:57:06;;;;;;;7.32;2.47;;;11.20;99.90;;;;;;4792830;29;20571;-86
2022/10/23 03:59:31;;;;;;;2.75;2.00;;;11.10;99.90;;;;;;4792685;29;20525;-86
2022/10/23 04:01:57;;;;;;;6.85;2.97;;;11.00;99.90;;;;;;4792768;29;20189;-86
2022/10/23 04:04:23;;;;;;;5.82;2.35;;;11.00;99.90;;;;;;4801969;29;20675;-87
2022/10/23 04:06:49;;;;;;;7.57;2.50;;;11.20;99.90;;;;;;4807595;29;20221;-87
2022/10/23 04:09:15;;;;;;;3.17;2.53;;;11.10;99.90;;;;;;4809017;29;20185;-87
2022/10/23 04:11:40;;;;;;;5.40;2.72;;;11.00;99.90;;;;;;4807696;29;20222;-87
2022/10/23 04:14:06;;;;;;;6.70;2.53;;;10.90;99.90;;;;;;4807324;29;20179;-87
2022/10/23 04:16:32;;;;;;;6.45;2.40;;;10.90;99.90;;;;;;4807487;29;20281;-86
2022/10/23 04:18:58;;;;;;;3.95;2.60;;;10.90;99.90;;;;;;4807280;29;20217;-87
2022/10/23 04:21:23;;;;;;;4.57;2.90;;;10.90;99.90;;;;;;4808599;29;20194;-85
2022/10/23 04:23:49;;;;;;;8.57;2.72;;;10.80;99.90;;;;;;4808525;29;20567;-86
2022/10/23 04:26:15;;;;;;;7.25;2.30;;;10.90;99.90;;;;;;4807083;29;20194;-86
2022/10/23 04:28:40;;;;;;;7.45;2.70;;;10.90;99.90;;;;;;4807365;29;20218;-86
2022/10/23 04:31:06;;;;;;;12.63;2.55;;;10.90;99.90;;;;;;4822282;29;20290;-87
2022/10/23 04:33:32;;;;;;;10.57;2.50;;;10.80;99.90;;;;;;4818516;29;20277;-86
2022/10/23 04:35:58;;;;;;;6.43;2.22;;;10.70;99.90;;;;;;4791932;29;20215;-86
2022/10/23 04:38:25;;;;;;;6.93;2.55;;;10.80;99.90;;;;;;4791947;29;20182;-86
2022/10/23 04:40:51;;;;;;;7.93;2.70;;;10.80;99.90;;;;;;4808268;29;20214;-86
2022/10/23 04:43:16;;;;;;;3.92;2.63;;;10.70;99.90;;;;;;4808077;29;20190;-85
2022/10/23 04:45:42;;;;;;;6.40;2.50;;;10.70;99.90;;;;;;4791934;29;20190;-87
2022/10/23 04:48:08;;;;;;;7.55;2.60;;;10.70;99.90;;;;;;4807795;29;20517;-85
2022/10/23 04:50:33;;;;;;;6.28;2.92;;;10.60;99.90;;;;;;4791614;29;20216;-87
2022/10/23 04:52:59;;;;;;;4.80;2.47;;;10.60;99.90;;;;;;4807912;29;20287;-86
2022/10/23 04:55:25;;;;;;;4.25;2.33;;;10.60;99.90;;;;;;4807773;29;20495;-85
2022/10/23 04:57:51;;;;;;;8.50;2.72;;;10.60;99.90;;;;;;4791510;29;20190;-86
2022/10/23 05:00:18;;;;;;;5.05;2.63;;;10.60;99.90;;;;;;4808003;29;20202;-86
2022/10/23 05:02:44;;;;;;;5.38;2.22;;;10.70;99.90;;;;;;4791508;29;20619;-85
2022/10/23 05:05:10;;;;;;;7.93;2.33;;;10.70;99.90;;;;;;4806337;29;20588;-86
2022/10/23 05:07:39;;;;;;;8.95;2.53;;;10.80;99.90;;;;;;4806474;29;20233;-86
2022/10/23 05:10:05;;;;;;;5.57;2.67;;;10.70;99.90;;;;;;4806545;29;20183;-86
2022/10/23 05:12:31;;;;;;;5.25;2.80;;;10.60;99.90;;;;;;4806474;29;20309;-86
2022/10/23 05:14:57;;;;;;;3.45;2.42;;;10.60;99.90;;;;;;4806162;29;20266;-85
2022/10/23 05:17:37;;;;;;;7.55;3.35;;;10.60;99.90;;;;;;4821298;29;20202;-86
2022/10/23 05:20:08;;;;;;;8.15;3.00;;;10.50;99.90;;;;;;4773228;30;20190;-85
2022/10/23 05:22:37;;;;;;;3.78;2.58;;;10.50;99.90;;;;;;4792983;29;20187;-86
2022/10/23 05:25:04;;;;;;;4.00;2.75;;;10.50;99.90;;;;;;4804403;29;20222;-86
2022/10/23 05:27:30;;;;;;;4.80;2.53;;;10.50;99.90;;;;;;4805610;29;20202;-86
2022/10/23 05:29:56;;;;;;;8.48;3.17;;;10.50;99.90;;;;;;4789687;29;20614;-86
2022/10/23 05:32:23;;;;;;;14.13;3.60;;;10.50;99.90;;;;;;4790764;29;20226;-86
2022/10/23 05:34:49;;;;;;;8.27;3.05;;;10.50;99.90;;;;;;4806628;29;20234;-86
2022/10/23 05:37:15;;;;;;;6.65;2.95;;;10.50;99.90;;;;;;4806993;29;20235;-86
2022/10/23 05:39:42;;;;;;;5.53;3.17;;;10.60;99.90;;;;;;4807202;29;20238;-87
2022/10/23 05:42:07;;;;;;;6.78;2.92;;;10.60;99.90;;;;;;4807103;29;20182;-86
2022/10/23 05:44:34;;;;;;;5.70;3.05;;;10.60;99.90;;;;;;4790589;29;20185;-85
2022/10/23 05:46:59;;;;;;;6.03;3.13;;;10.60;99.90;;;;;;4790658;29;20197;-86
2022/10/23 05:49:26;;;;;;;4.35;2.78;;;10.60;99.90;;;;;;4806922;29;20175;-86
2022/10/23 05:51:51;;;;;;;7.28;2.95;;;10.70;99.90;;;;;;4790576;29;20305;-87
2022/10/23 05:54:17;;;;;;;4.93;2.83;;;10.60;99.90;;;;;;4790562;29;20270;-86
2022/10/23 05:56:43;;;;;;;4.50;2.92;;;10.70;99.90;;;;;;4806902;29;20201;-85
2022/10/23 05:59:09;;;;;;;5.93;2.95;;;10.70;99.90;;;;;;4790403;29;20201;-86
2022/10/23 06:01:36;;;;;;;4.05;2.80;;;10.60;99.90;;;;;;4790615;29;20190;-85
2022/10/23 06:04:02;;;;;;;5.05;2.83;;;10.60;99.90;;;;;;4789558;29;20635;-85
2022/10/23 06:06:29;;;;;;;6.50;2.65;;;10.60;99.90;;;;;;4790351;29;20623;-86
2022/10/23 06:08:54;;;;;;;5.32;2.22;;;10.70;99.90;;;;;;4806721;29;20182;-85
2022/10/23 06:11:20;;;;;;;4.13;2.72;;;10.70;99.90;;;;;;4790217;29;20726;-86
2022/10/23 06:13:49;;;;;;;4.18;2.42;;;10.70;99.90;;;;;;4790250;29;20194;-86
2022/10/23 06:16:21;;;;;;;5.28;2.72;;;10.60;99.90;;;;;;4790246;29;20204;-85
2022/10/23 06:18:47;;;;;;;4.60;2.88;;;10.70;99.90;;;;;;4790203;29;20194;-85
2022/10/23 06:21:14;;;;;;;4.13;2.42;;;10.70;99.90;;;;;;4806666;29;20187;-86
2022/10/23 06:23:41;;;;;;;11.70;6.47;;;10.60;99.90;;;;;;4790324;29;20191;-85
2022/10/23 06:26:09;;;;;;;18.77;9.10;;;10.60;99.90;;;;;;4790084;29;20191;-86
2022/10/23 06:28:35;;;;;;;11.38;7.28;;;10.50;99.90;;;;;;4790402;29;20221;-87
2022/10/23 06:31:05;;;;;;;14.45;7.80;;;10.50;99.90;;;;;;4790624;29;20254;-87
2022/10/23 06:33:31;;;;;;;10.27;7.18;;;10.60;99.90;;;;;;4806052;29;20325;-87
2022/10/23 06:35:57;;;;;;;11.88;6.80;;;10.50;99.90;;;;;;4790357;29;20269;-87
2022/10/23 06:38:23;;;;;;;16.13;8.57;;;10.50;99.90;;;;;;4791044;29;20574;-86
2022/10/23 06:40:53;;;;;;;18.83;8.43;;;10.50;99.90;;;;;;4809815;29;20175;-86
2022/10/23 06:43:18;;;;;;;8.10;3.88;;;10.50;99.90;;;;;;4793832;29;20759;-85
2022/10/23 06:45:44;;;;;;;11.70;4.82;;;10.60;99.90;;;;;;4793723;29;20218;-86
2022/10/23 06:48:10;;;;;;;9.52;4.80;;;10.60;99.90;;;;;;4809913;29;20271;-86
2022/10/23 06:50:37;;;;;;;6.72;4.25;;;10.60;99.90;;;;;;4793498;29;20607;-86
2022/10/23 06:53:04;;;;;;;7.10;4.10;;;10.60;99.90;;;;;;4793415;29;20341;-87
2022/10/23 06:55:31;;;;;;;10.75;4.15;;;10.60;99.90;;;;;;4793212;29;20193;-86
2022/10/23 06:57:57;;;;;;;8.00;3.60;;;10.60;99.90;;;;;;4793436;29;20190;-86
2022/10/23 07:00:23;;;;;;;8.15;4.68;;;10.60;99.90;;;;;;4809733;29;20599;-86
2022/10/23 07:02:50;;;;;;;6.60;3.50;;;10.70;99.90;;;;;;4793437;29;20197;-87
2022/10/23 07:05:16;;;;;;;2.58;2.15;;;10.80;99.90;;;;;;4790158;30;20646;-86
2022/10/23 07:07:41;;;;;;;8.63;2.70;;;10.80;99.90;;;;;;4775265;30;20228;-86
2022/10/23 07:10:07;;;;;;;5.88;2.00;;;10.80;99.90;;;;;;4775140;30;20187;-85
2022/10/23 07:12:33;;;;;;;4.45;2.10;;;10.80;99.90;;;;;;4775270;30;20273;-86
2022/10/23 07:14:59;;;;;;;3.28;2.30;;;10.90;99.90;;;;;;4775089;30;20194;-85
2022/10/23 07:17:25;;;;;;;7.03;2.30;;;11.00;99.90;;;;;;4791312;30;20179;-86
2022/10/23 07:19:50;;;;;;;7.40;2.40;;;11.10;99.90;;;;;;4789931;30;20191;-86
2022/10/23 07:22:16;;;;;;;5.03;2.28;;;11.20;99.90;;;;;;4774991;30;20183;-86
2022/10/23 07:24:42;;;;;;;4.72;2.00;;;11.20;99.90;;;;;;4789898;30;20211;-85
2022/10/23 07:27:08;;;;;;;5.38;2.65;;;11.30;99.90;;;;;;4791087;30;20180;-85
2022/10/23 07:29:33;;;;;;;4.50;2.42;;;11.40;99.90;;;;;;4775005;30;20195;-85
2022/10/23 07:31:59;;;;;;;6.65;2.35;;;11.50;99.90;;;;;;4774823;30;20562;-85
2022/10/23 07:34:26;;;;;;;5.93;2.30;;;11.60;99.90;;;;;;4783233;30;20266;-86
2022/10/23 07:36:53;;;;;;;5.30;2.28;;;11.70;99.90;;;;;;4790812;30;20179;-85
2022/10/23 07:39:21;;;;;;;7.10;2.25;;;11.80;99.90;;;;;;4789612;30;20195;-85
2022/10/23 07:41:47;;;;;;;6.72;2.50;;;11.90;99.90;;;;;;4789721;30;20667;-84
2022/10/23 07:44:13;;;;;;;7.80;2.17;;;12.00;99.90;;;;;;4789373;30;20549;-85
2022/10/23 07:46:39;;;;;;;8.43;2.30;;;12.10;99.90;;;;;;4774512;30;20198;-86
2022/10/23 07:49:04;;;;;;;6.80;2.05;;;12.20;99.90;;;;;;4781575;29;20186;-85
2022/10/23 07:51:30;;;;;;;13.73;2.22;;;12.30;99.90;;;;;;4807414;29;20682;-86
2022/10/23 07:53:56;;;;;;;6.70;2.60;;;12.50;99.90;;;;;;4807552;29;20213;-85
2022/10/23 07:56:25;;;;;;;9.13;2.35;;;12.60;99.90;;;;;;4808075;29;20269;-85
2022/10/23 07:58:52;;;;;;;6.10;2.58;;;12.70;99.90;;;;;;4808867;29;20197;-86
2022/10/23 08:01:26;;;;;;;8.27;2.50;;;12.80;99.90;;;;;;4792599;29;20183;-85
2022/10/23 08:03:52;;;;;;;5.43;1.80;;;12.90;99.90;;;;;;4791994;29;20194;-86
2022/10/23 08:06:17;;;;;;;5.75;1.90;;;13.00;99.90;;;;;;4792142;29;20244;-86
2022/10/23 08:08:43;;;;;;;4.88;1.80;;;13.10;99.90;;;;;;4792463;29;20201;-86
2022/10/23 08:11:12;;;;;;;4.45;2.00;;;13.10;99.90;;;;;;4792203;29;20286;-86
2022/10/23 08:13:38;;;;;;;4.03;1.70;;;13.10;99.90;;;;;;4792438;29;20537;-86
2022/10/23 08:16:04;;;;;;;8.73;1.70;;;13.20;99.90;;;;;;4792151;29;20185;-86
2022/10/23 08:18:32;;;;;;;4.20;1.70;;;13.20;99.90;;;;;;4792070;29;20252;-85
2022/10/23 08:21:02;;;;;;;9.18;2.20;;;13.20;99.90;;;;;;4808463;29;20178;-86
2022/10/23 08:23:29;;;;;;;9.23;2.05;;;13.30;99.90;;;;;;4792102;29;20194;-87
2022/10/23 08:25:59;;;;;;;4.80;1.58;;;13.30;99.90;;;;;;4791663;29;20222;-85
2022/10/23 08:28:26;;;;;;;3.22;1.65;;;13.40;99.90;;;;;;4792126;29;20201;-87
2022/10/23 08:30:51;;;;;;;5.90;2.00;;;13.40;99.90;;;;;;4792168;29;20606;-87
2022/10/23 08:33:17;;;;;;;3.78;1.50;;;13.50;99.90;;;;;;4791511;29;20244;-87
2022/10/23 08:35:43;;;;;;;5.75;1.88;;;13.50;99.90;;;;;;4791614;29;20627;-88
2022/10/23 08:38:10;;;;;;;9.18;1.80;;;13.60;99.90;;;;;;4791847;29;20214;-87
2022/10/23 08:40:36;;;;;;;3.17;1.70;;;13.60;99.90;;;;;;4808203;29;20183;-88
2022/10/23 08:43:11;;;;;;;4.15;1.65;;;13.70;99.90;;;;;;4791773;29;20186;-87
2022/10/23 08:45:46;;;;;;;8.05;1.60;;;13.70;99.90;;;;;;4791635;29;20212;-87
2022/10/23 08:48:31;;;;;;;6.07;1.73;;;13.80;99.90;;;;;;4820787;29;20251;-88
2022/10/23 08:51:22;;;;;;;9.07;1.75;;;13.80;99.90;;;;;;4809589;29;20618;-88
2022/10/23 08:54:15;;;;;;;6.60;1.45;;;13.90;99.90;;;;;;4809711;29;20178;-86
2022/10/23 08:56:43;;;;;;;6.55;1.42;;;14.00;99.90;;;;;;4804320;29;20201;-87
2022/10/23 08:59:24;;;;;;;13.73;1.50;;;14.00;99.90;;;;;;4809623;29;20196;-88
2022/10/23 09:01:59;;;;;;;7.97;1.45;;;14.10;99.90;;;;;;4809204;29;20182;-88
2022/10/23 09:04:25;;;;;;;4.85;1.38;;;14.10;99.90;;;;;;4797366;29;20205;-88
2022/10/23 09:07:02;;;;;;;6.30;1.30;;;14.20;99.90;;;;;;4791564;29;20187;-87
2022/10/23 09:10:02;;;;;;;2.78;1.10;;;14.30;99.90;;;;;;4791466;29;20221;-87
2022/10/23 09:12:30;;;;;;;9.40;1.63;;;14.30;99.90;;;;;;4790918;29;20266;-89
2022/10/23 09:15:06;;;;;;;5.45;1.48;;;14.40;99.90;;;;;;4791218;29;20248;-87
2022/10/23 09:17:39;;;;;;;4.20;1.50;;;14.40;99.90;;;;;;4791136;29;20186;-88
2022/10/23 09:20:32;;;;;;;9.63;1.50;;;14.50;99.90;;;;;;4808141;29;20186;-89
2022/10/23 09:23:02;;;;;;;6.75;1.58;;;14.50;99.90;;;;;;4809207;29;20606;-88
2022/10/23 09:25:38;;;;;;;6.55;1.48;;;14.50;99.90;;;;;;4825409;29;20178;-89
2022/10/23 09:28:05;;;;;;;3.35;1.30;;;14.60;99.90;;;;;;4808433;29;20640;-88
2022/10/23 09:30:37;;;;;;;8.02;1.58;;;14.70;99.90;;;;;;4808839;29;20452;-88
2022/10/23 09:33:18;;;;;;;3.60;1.50;;;14.70;99.90;;;;;;4807714;29;20245;-89
2022/10/23 09:36:04;;;;;;;6.38;1.58;;;14.70;99.90;;;;;;4789815;29;20174;-88
2022/10/23 09:38:35;;;;;;;3.20;1.17;;;14.70;99.90;;;;;;4790561;29;20191;-89
2022/10/23 09:41:22;;;;;;;5.03;1.42;;;14.70;99.90;;;;;;4790214;29;20186;-90
2022/10/23 09:44:22;;;;;;;4.85;1.77;;;14.80;99.90;;;;;;4791071;29;20182;-88
2022/10/23 09:47:07;;;;;;;3.20;1.25;;;14.80;99.90;;;;;;4782786;29;20225;-89
2022/10/23 09:49:33;;;;;;;4.60;1.42;;;14.90;99.90;;;;;;4790837;29;20202;-89
2022/10/23 09:52:00;;;;;;;5.45;1.50;;;15.00;99.90;;;;;;4790836;29;20306;-88
2022/10/23 09:54:28;;;;;;;7.55;1.42;;;15.00;99.90;;;;;;4806080;29;20183;-88
2022/10/23 09:56:56;;;;;;;4.85;1.80;;;15.00;99.90;;;;;;4813233;29;20267;-88
2022/10/23 09:59:28;;;;;;;11.23;1.60;;;15.10;99.90;;;;;;4806987;29;20206;-89
2022/10/23 10:02:02;;;;;;;4.05;1.33;;;15.20;99.90;;;;;;4806109;29;20692;-88
2022/10/23 10:04:37;;;;;;;5.18;1.58;;;15.30;99.90;;;;;;4806767;29;20568;-90
2022/10/23 10:07:06;;;;;;;5.88;1.38;;;15.40;99.90;;;;;;4790694;29;20182;-89
2022/10/23 10:09:32;;;;;;;5.20;1.55;;;15.60;99.90;;;;;;4790797;29;20190;-87
2022/10/23 10:12:30;;;;;;;6.03;1.50;;;15.60;99.90;;;;;;4807008;29;20214;-90
2022/10/23 10:15:06;;;;;;;4.30;1.50;;;15.80;99.90;;;;;;4800080;29;20278;-89
2022/10/23 10:17:51;;;;;;;8.93;1.60;;;15.80;99.90;;;;;;4810322;29;20198;-87
2022/10/23 10:20:27;;;;;;;5.43;1.25;;;15.80;99.90;;;;;;4793941;29;20210;-87
2022/10/23 10:23:00;;;;;;;4.05;1.20;;;15.80;99.90;;;;;;4794440;29;20231;-88
2022/10/23 10:25:44;;;;;;;1.75;1.20;;;15.90;99.90;;;;;;4810578;29;20253;-88
2022/10/23 10:28:27;;;;;;;2.30;1.35;;;15.90;99.90;;;;;;4791869;29;20211;-88
2022/10/23 10:31:05;;;;;;;4.13;1.38;;;15.90;99.90;;;;;;4791240;30;20262;-88
2022/10/23 10:33:47;;;;;;;6.53;1.20;;;16.00;99.90;;;;;;4810694;29;20286;-87
2022/10/23 10:36:54;;;;;;;4.25;1.38;;;16.00;99.90;;;;;;4793619;29;20245;-88
2022/10/23 10:39:42;;;;;;;5.20;1.20;;;16.00;99.90;;;;;;4810303;29;20208;-89
2022/10/23 10:42:49;;;;;;;4.05;1.30;;;16.00;99.90;;;;;;4815485;29;20174;-89
2022/10/23 10:45:37;;;;;;;7.50;1.25;;;16.10;99.90;;;;;;4828045;29;20166;-88
2022/10/23 10:48:29;;;;;;;2.85;1.30;;;16.10;99.90;;;;;;4811949;29;20181;-88
2022/10/23 10:51:11;;;;;;;5.00;1.20;;;16.20;99.90;;;;;;4827742;29;20174;-89
2022/10/23 10:53:52;;;;;;;6.60;1.60;;;16.20;99.90;;;;;;4828049;29;20185;-88
2022/10/23 10:56:21;;;;;;;5.70;1.60;;;16.20;99.90;;;;;;4811243;29;20644;-89
2022/10/23 10:58:55;;;;;;;3.97;1.60;;;16.20;99.90;;;;;;4811407;29;20186;-88
2022/10/23 11:01:31;;;;;;;5.13;1.48;;;16.30;99.90;;;;;;4811652;29;20245;-88
2022/10/23 11:04:12;;;;;;;6.35;1.90;;;16.30;99.90;;;;;;4804214;29;20673;-88
2022/10/23 11:06:39;;;;;;;3.55;1.25;;;16.30;99.90;;;;;;4809674;29;20490;-88
2022/10/23 11:09:16;;;;;;;6.43;1.40;;;16.30;99.90;;;;;;4809885;29;20178;-88
2022/10/23 11:11:43;;;;;;;10.27;1.55;;;16.30;99.90;;;;;;4793464;29;20221;-88
2022/10/23 11:14:18;;;;;;;4.95;1.23;;;16.30;99.90;;;;;;4793437;29;20205;-88
2022/10/23 11:17:02;;;;;;;3.47;1.27;;;16.30;99.90;;;;;;4793521;29;20196;-87
2022/10/23 11:19:32;;;;;;;5.40;1.40;;;16.40;99.90;;;;;;4793224;29;20225;-88
2022/10/23 11:22:25;;;;;;;5.78;1.48;;;16.40;99.90;;;;;;4793544;29;20619;-88
2022/10/23 11:25:19;;;;;;;5.88;1.55;;;16.50;99.90;;;;;;4791974;29;20193;-88
2022/10/23 11:28:03;;;;;;;7.05;1.27;;;16.60;99.90;;;;;;4809240;29;20266;-89
2022/10/23 11:30:43;;;;;;;5.95;1.40;;;16.70;99.90;;;;;;4792893;29;20241;-87
2022/10/23 11:33:36;;;;;;;4.97;1.40;;;16.80;99.90;;;;;;4789425;30;20235;-88
2022/10/23 11:36:19;;;;;;;6.80;1.73;;;16.90;99.90;;;;;;4789596;30;20184;-88
2022/10/23 11:38:48;;;;;;;4.72;1.20;;;16.90;99.90;;;;;;4790224;30;20271;-87
2022/10/23 11:41:32;;;;;;;4.63;1.42;;;17.00;99.90;;;;;;4801803;29;20252;-87
2022/10/23 11:44:02;;;;;;;6.47;1.55;;;17.10;99.90;;;;;;4807870;29;20179;-88
2022/10/23 11:46:37;;;;;;;6.90;1.42;;;17.10;99.90;;;;;;4807998;29;20182;-88
2022/10/23 11:49:05;;;;;;;6.55;1.05;;;17.20;99.90;;;;;;4807956;29;20196;-87
2022/10/23 11:51:40;;;;;;;3.72;1.13;;;17.20;99.90;;;;;;4807639;29;20214;-89
2022/10/23 11:54:26;;;;;;;4.30;1.35;;;17.30;99.90;;;;;;4808959;29;20257;-87
2022/10/23 11:57:06;;;;;;;4.07;1.10;;;17.30;99.90;;;;;;4808894;29;20592;-88
2022/10/23 11:59:44;;;;;;;2.97;0.90;;;17.30;99.90;;;;;;4807639;29;20262;-88
2022/10/23 12:02:37;;;;;;;1.92;0.90;;;17.40;99.90;;;;;;4807806;29;20191;-89
2022/10/23 12:05:28;;;;;;;4.22;0.90;;;17.40;99.90;;;;;;4792343;29;20278;-91
2022/10/23 12:07:57;;;;;;;4.00;1.20;;;17.50;99.90;;;;;;4781413;29;20271;-88
2022/10/23 12:10:33;;;;;;;3.10;0.98;;;17.60;99.90;;;;;;4789027;30;20191;-88
2022/10/23 12:13:04;;;;;;;4.68;0.98;;;17.60;99.90;;;;;;4789133;30;20238;-87
2022/10/23 12:15:33;;;;;;;2.42;1.00;;;17.70;99.90;;;;;;4789507;30;20244;-88
2022/10/23 12:18:16;;;;;;;2.00;0.80;;;17.80;99.90;;;;;;4789186;29;20636;-87
2022/10/23 12:20:48;;;;;;;2.70;0.95;;;17.80;99.90;;;;;;4788894;30;20188;-87
2022/10/23 12:23:52;;;;;;;2.42;1.05;;;17.90;99.90;;;;;;4790379;29;20620;-87
2022/10/23 12:26:45;;;;;;;3.22;1.13;;;17.90;99.90;;;;;;4788994;30;20187;-89
2022/10/23 12:29:39;;;;;;;8.55;0.85;;;18.00;99.90;;;;;;4788993;30;20282;-88
2022/10/23 12:32:33;;;;;;;4.63;1.13;;;18.00;99.90;;;;;;4744175;30;20288;-87
2022/10/23 12:35:17;;;;;;;2.03;0.80;;;18.10;99.90;;;;;;4789664;29;20227;-87
2022/10/23 12:37:45;;;;;;;3.40;1.10;;;18.10;99.90;;;;;;4788769;30;20188;-88
2022/10/23 12:40:11;;;;;;;3.38;1.02;;;18.10;99.90;;;;;;4788928;30;20548;-88
2022/10/23 12:42:37;;;;;;;4.70;1.10;;;18.10;99.90;;;;;;4790154;29;20190;-89
2022/10/23 12:45:09;;;;;;;2.47;0.73;;;18.00;99.90;;;;;;4788694;29;20266;-88
2022/10/23 12:47:36;;;;;;;1.73;1.00;;;18.00;99.90;;;;;;4802919;29;20199;-88
2022/10/23 12:50:02;;;;;;;3.08;0.98;;;17.90;99.90;;;;;;4789035;30;20266;-87
2022/10/23 12:52:28;;;;;;;6.03;0.90;;;17.90;99.90;;;;;;4789567;29;20302;-87
2022/10/23 12:54:54;;;;;;;3.75;0.90;;;17.90;99.90;;;;;;4788959;29;20638;-87
2022/10/23 12:57:22;;;;;;;2.80;0.80;;;18.00;99.90;;;;;;4802875;29;20195;-87
2022/10/23 12:59:50;;;;;;;2.60;0.90;;;18.10;99.90;;;;;;4803507;29;20213;-87
2022/10/23 13:02:20;;;;;;;4.05;0.93;;;18.20;99.90;;;;;;4803463;29;20197;-88
2022/10/23 13:04:47;;;;;;;7.03;1.20;;;18.20;99.90;;;;;;4803095;29;20191;-88
2022/10/23 13:07:12;;;;;;;7.47;0.85;;;18.30;99.90;;;;;;4789303;29;20240;-88
2022/10/23 13:09:41;;;;;;;2.28;0.95;;;18.30;99.90;;;;;;4795065;29;20187;-88